Time;durP1;ratioP1;P1;durP2;ratioP2;P2;SDS_P1;SDS_P2;PMS_P1;PMS_P2;Temp;Humidity;BMP_temperature;BMP_pressure;BME280_temperature;BME280_humidity;BME280_pressure;Samples;Min_cycle;Max_cycle;Signal;HPM_P1;HPM_P2
2022/01/23 00:04:27;;;;;;;1999.90;999.90;;;;;;;7.95;78.31;102536.75;15608653;28;20052;-64
2022/01/23 00:12:08;;;;;;;1999.90;999.90;;;;;;;7.88;79.19;102536.16;15587242;28;20050;-66
2022/01/23 00:19:57;;;;;;;1999.90;999.90;;;;;;;7.95;79.52;102540.38;15602448;28;20470;-67
2022/01/23 00:35:46;;;;;;;1999.90;999.90;;;;;;;7.98;79.51;102545.38;15558467;28;20046;-65
2022/01/23 00:43:32;;;;;;;1999.90;999.90;;;;;;;7.94;79.51;102548.97;15600380;28;20045;-67
2022/01/23 00:51:13;;;;;;;1999.90;999.90;;;;;;;7.93;79.49;102548.16;15621458;28;20040;-66
2022/01/23 00:58:48;;;;;;;1999.90;999.90;;;;;;;8.05;79.05;102548.75;15620964;28;20038;-66
2022/01/23 01:06:30;;;;;;;1999.90;999.90;;;;;;;7.85;79.88;102537.53;15604677;28;20049;-66
2022/01/23 01:14:24;;;;;;;1999.90;999.90;;;;;;;7.81;80.28;102525.25;15591972;28;20052;-65
2022/01/23 01:30:23;;;;;;;1999.90;999.90;;;;;;;8.01;79.74;102519.81;15525295;28;19925;-67
2022/01/23 01:37:59;;;;;;;1999.90;999.90;;;;;;;7.96;80.10;102519.78;15541534;28;20560;-66
2022/01/23 01:45:43;;;;;;;1999.90;999.90;;;;;;;8.04;79.64;102546.25;15556867;28;20058;-67
2022/01/23 01:53:25;;;;;;;1999.90;999.90;;;;;;;7.91;80.21;102572.56;15556939;28;20127;-65
2022/01/23 02:01:04;;;;;;;1999.90;999.90;;;;;;;7.87;80.50;102563.13;15539499;28;20054;-65
2022/01/23 02:08:58;;;;;;;1999.90;999.90;;;;;;;7.96;80.53;102558.72;15654704;23;20045;-65
2022/01/23 02:17:19;;;;;;;1999.90;999.90;;;;;;;8.13;80.06;102558.53;15663044;28;20049;-66
2022/01/23 02:25:28;;;;;;;1999.90;999.90;;;;;;;7.99;79.82;102554.56;15661880;28;20405;-66
2022/01/23 02:56:49;;;;;;;1999.90;999.90;;;;;;;7.78;80.12;102553.59;15649016;28;20048;-66
2022/01/23 03:04:27;;;;;;;1999.90;999.90;;;;;;;7.88;79.80;102556.44;15632146;28;20544;-66
2022/01/23 03:12:29;;;;;;;1999.90;999.90;;;;;;;7.93;79.63;102544.53;15615509;28;20402;-67
2022/01/23 03:28:19;;;;;;;;;;;;;;;8.08;79.03;102567.66;15688422;28;20574;-67
2022/01/23 03:35:55;;;;;;;1999.90;999.90;;;;;;;7.87;79.57;102573.41;15672167;28;19921;-67
2022/01/23 03:43:37;;;;;;;1999.90;999.90;;;;;;;7.73;80.50;102573.88;15687841;28;20045;-67
2022/01/23 03:51:17;;;;;;;1999.90;999.90;;;;;;;7.79;80.27;102574.72;15679270;28;20050;-66
2022/01/23 03:58:59;;;;;;;1999.90;999.90;;;;;;;7.82;79.69;102575.06;15608746;28;20077;-66
2022/01/23 04:06:43;;;;;;;1999.90;999.90;;;;;;;7.82;79.43;102575.06;15608857;28;20041;-66
2022/01/23 04:14:19;;;;;;;1999.90;999.90;;;;;;;7.81;79.57;102578.06;15607537;28;20477;-67
2022/01/23 04:45:35;;;;;;;1999.90;999.90;;;;;;;7.93;78.58;102595.41;15622697;28;20034;-67
2022/01/23 05:01:25;;;;;;;1999.90;999.90;;;;;;;7.97;79.13;102609.59;15681203;28;20052;-67
2022/01/23 05:09:07;;;;;;;1999.90;999.90;;;;;;;8.16;78.42;102626.66;15665586;28;20075;-67
2022/01/23 05:16:50;;;;;;;1999.90;999.90;;;;;;;8.11;78.13;102624.66;15683420;28;20041;-66
2022/01/23 05:24:36;;;;;;;1999.90;999.90;;;;;;;8.07;78.65;102629.09;15684070;28;20065;-66
2022/01/23 05:32:12;;;;;;;1999.90;999.90;;;;;;;8.03;78.96;102628.81;15681968;28;20036;-65
2022/01/23 05:39:55;;;;;;;1999.90;999.90;;;;;;;8.19;78.33;102635.28;15680457;28;20041;-66
2022/01/23 05:47:37;;;;;;;1999.90;999.90;;;;;;;7.71;79.80;102645.59;15680882;28;20043;-66
2022/01/23 05:55:46;;;;;;;1999.90;999.90;;;;;;;7.71;79.79;102648.34;15634681;28;20041;-67
2022/01/23 06:03:44;;;;;;;1999.90;999.90;;;;;;;7.75;79.63;102652.25;15618965;28;20029;-66
2022/01/23 06:11:28;;;;;;;1999.90;999.90;;;;;;;7.45;80.85;102647.31;15601016;28;20045;-67
2022/01/23 06:19:08;;;;;;;1999.90;999.90;;;;;;;7.71;80.31;102658.59;15616937;28;20049;-68
2022/01/23 06:27:06;;;;;;;;;;;;;;;8.07;79.05;102668.88;15616523;28;20421;-66
2022/01/23 06:34:51;;;;;;;1999.90;999.90;;;;;;;7.86;79.52;102660.69;15601486;28;19964;-66
2022/01/23 06:42:28;;;;;;;1999.90;999.90;;;;;;;7.86;79.97;102669.00;15615314;28;20103;-66
2022/01/23 06:50:16;;;;;;;1999.90;999.90;;;;;;;8.00;79.42;102684.94;15597977;28;20047;-66
2022/01/23 06:57:56;;;;;;;1999.90;999.90;;;;;;;7.98;79.58;102680.78;15553053;28;20097;-66
2022/01/23 07:05:42;;;;;;;1999.90;999.90;;;;;;;7.66;80.33;102675.25;15553735;28;20408;-66
2022/01/23 07:13:29;;;;;;;1999.90;999.90;;;;;;;7.88;79.85;102677.91;15537646;28;20042;-67
2022/01/23 07:22:05;;;;;;;1999.90;999.90;;;;;;;8.02;79.55;102696.66;15550179;28;20462;-67
2022/01/23 07:29:55;;;;;;;1999.90;999.90;;;;;;;8.00;79.68;102725.81;15553305;28;20041;-66
2022/01/23 07:37:38;;;;;;;1999.90;999.90;;;;;;;7.87;80.32;102731.84;15535921;28;20046;-67
2022/01/23 07:45:29;;;;;;;1999.90;999.90;;;;;;;8.04;79.85;102738.09;15563893;28;20049;-67
2022/01/23 07:53:45;;;;;;;1999.90;999.90;;;;;;;7.99;80.26;102747.22;15614925;28;20046;-67
2022/01/23 08:02:07;;;;;;;;;;;;;;;;;;;;;
2022/01/23 08:10:15;;;;;;;1999.90;999.90;;;;;;;8.43;78.90;102743.38;15636397;28;20037;-66
2022/01/23 08:18:07;;;;;;;;;;;;;;;;;;;;;
2022/01/23 08:25:53;;;;;;;1999.90;999.90;;;;;;;8.55;78.22;102746.81;15660883;28;20148;-67
2022/01/23 08:33:34;;;;;;;1999.90;999.90;;;;;;;8.29;78.92;102754.94;15687122;28;20090;-67
2022/01/23 08:49:16;;;;;;;;;;;;;;;;;;;;;
2022/01/23 08:56:59;;;;;;;1999.90;999.90;;;;;;;9.32;77.11;102779.41;15623774;28;20084;-68
2022/01/23 09:04:39;;;;;;;1999.90;999.90;;;;;;;9.06;76.67;102784.03;15623265;28;20099;-66
2022/01/23 09:12:44;;;;;;;1999.90;999.90;;;;;;;8.87;76.94;102782.88;15619658;28;20045;-66
2022/01/23 09:20:45;;;;;;;1999.90;999.90;;;;;;;9.01;77.41;102786.81;15620807;28;20038;-65
2022/01/23 09:28:30;;;;;;;1999.90;999.90;;;;;;;9.06;77.47;102789.59;15617889;28;20045;-66
2022/01/23 09:36:13;;;;;;;1999.90;999.90;;;;;;;8.62;78.69;102794.69;15618467;28;20049;-63
2022/01/23 09:43:48;;;;;;;;;;;;;;;9.01;77.47;102803.53;15614097;28;20033;-65
2022/01/23 09:51:23;;;;;;;1999.90;999.90;;;;;;;9.02;78.54;102802.41;15616781;28;19921;-64
2022/01/23 09:58:58;;;;;;;1999.90;999.90;;;;;;;9.32;77.47;102800.84;15616941;28;20095;-65
2022/01/23 10:06:31;;;;;;;1999.90;999.90;;;;;;;8.91;78.20;102807.09;15616316;28;20507;-66
2022/01/23 10:14:05;;;;;;;1999.90;999.90;;;;;;;9.09;78.24;102814.16;15616960;28;20056;-65
2022/01/23 10:21:39;;;;;;;1999.90;999.90;;;;;;;9.01;78.03;102814.66;15614516;28;20505;-63
2022/01/23 10:29:17;;;;;;;;;;;;;;;9.84;76.29;102809.88;15612151;28;20055;-65
2022/01/23 10:36:50;;;;;;;1999.90;999.90;;;;;;;9.76;76.34;102804.00;15616873;28;20362;-67
2022/01/23 10:52:32;;;;;;;1999.90;999.90;;;;;;;9.46;77.54;102799.19;15599048;28;20147;-66
2022/01/23 11:00:09;;;;;;;1999.90;999.90;;;;;;;9.35;77.75;102803.91;15635820;28;20049;-67
2022/01/23 11:07:44;;;;;;;1999.90;999.90;;;;;;;9.60;77.08;102797.56;15658641;28;20502;-67
2022/01/23 11:31:28;;;;;;;1999.90;999.90;;;;;;;10.17;74.61;102798.44;15643759;28;20037;-66
2022/01/23 11:39:12;;;;;;;1999.90;999.90;;;;;;;10.22;75.13;102801.28;15664244;28;20044;-66
2022/01/23 12:13:44;;;;;;;1999.90;999.90;;;;;;;10.27;75.81;102809.63;15563479;28;20105;-66
2022/01/23 12:21:28;;;;;;;1999.90;999.90;;;;;;;10.64;74.56;102803.72;15539461;28;20513;-66
2022/01/23 12:29:11;;;;;;;1999.90;999.90;;;;;;;10.54;74.79;102795.38;15560284;28;20038;-64
2022/01/23 12:37:01;;;;;;;1999.90;999.90;;;;;;;10.51;74.47;102802.31;15558028;28;20568;-63
2022/01/23 12:44:41;;;;;;;1999.90;999.90;;;;;;;10.43;75.10;102802.09;15557569;28;20058;-67
2022/01/23 12:52:19;;;;;;;1999.90;999.90;;;;;;;9.90;76.27;102784.75;15547455;28;20111;-65
2022/01/23 13:00:00;;;;;;;1999.90;999.90;;;;;;;10.04;76.29;102783.09;15558878;28;20050;-63
2022/01/23 13:07:42;;;;;;;1999.90;999.90;;;;;;;10.18;75.61;102783.38;15559254;28;20085;-65
2022/01/23 13:31:12;;;;;;;1999.90;999.90;;;;;;;10.01;75.15;102794.84;15618271;22;20046;-65
2022/01/23 13:38:55;;;;;;;1999.90;999.90;;;;;;;10.09;74.93;102799.81;15532299;28;20070;-65
2022/01/23 14:02:21;;;;;;;1999.90;999.90;;;;;;;10.31;74.86;102819.09;15496144;28;20491;-65
2022/01/23 14:09:57;;;;;;;1999.90;999.90;;;;;;;10.35;74.64;102801.53;15517404;28;20140;-65
2022/01/23 14:17:32;;;;;;;1999.90;999.90;;;;;;;10.13;74.84;102812.97;15527889;28;20049;-66
2022/01/23 14:25:13;;;;;;;1999.90;999.90;;;;;;;10.24;74.32;102815.78;15507470;28;20042;-64
2022/01/23 14:32:49;;;;;;;1999.90;999.90;;;;;;;10.15;74.67;102823.84;15494917;28;20073;-64
2022/01/23 14:40:25;;;;;;;1999.90;999.90;;;;;;;10.36;74.58;102833.91;15497436;28;20051;-65
2022/01/23 14:47:59;;;;;;;1999.90;999.90;;;;;;;10.07;75.41;102835.53;15474953;28;20050;-65
2022/01/23 14:55:33;;;;;;;1999.90;999.90;;;;;;;10.28;75.16;102830.81;15520200;28;20050;-64
2022/01/23 15:03:07;;;;;;;1999.90;999.90;;;;;;;10.31;74.84;102828.31;15477240;28;20050;-63
2022/01/23 15:10:44;;;;;;;1999.90;999.90;;;;;;;10.35;74.79;102821.06;15485555;28;20050;-65
2022/01/23 15:18:17;;;;;;;1999.90;999.90;;;;;;;10.22;75.19;102815.22;15538555;28;20289;-65
2022/01/23 15:25:51;;;;;;;;;;;;;;;10.24;75.04;102827.78;15495912;28;20137;-66
2022/01/23 15:33:24;;;;;;;1999.90;999.90;;;;;;;10.23;75.65;102848.41;15475712;28;19928;-66
2022/01/23 15:40:59;;;;;;;1999.90;999.90;;;;;;;10.14;74.39;102858.44;15478836;28;20052;-65
2022/01/23 15:48:42;;;;;;;1999.90;999.90;;;;;;;10.09;75.97;102875.16;15553099;28;20052;-63
2022/01/23 15:56:23;;;;;;;1999.90;999.90;;;;;;;10.22;75.58;102879.41;15554137;28;20046;-65
2022/01/23 16:03:57;;;;;;;1999.90;999.90;;;;;;;9.90;75.84;102880.44;15554107;28;20045;-65
2022/01/23 16:11:34;;;;;;;1999.90;999.90;;;;;;;10.06;76.29;102892.44;15555914;28;20080;-66
2022/01/23 16:19:10;;;;;;;1999.90;999.90;;;;;;;9.92;76.38;102899.69;15523097;28;20038;-66
2022/01/23 16:26:52;;;;;;;1999.90;999.90;;;;;;;9.72;76.93;102901.31;15483184;28;20097;-65
2022/01/23 16:34:27;;;;;;;1999.90;999.90;;;;;;;9.69;77.04;102903.78;15486678;28;20129;-65
2022/01/23 16:42:02;;;;;;;1999.90;999.90;;;;;;;9.84;76.09;102907.47;15482375;28;20074;-66
2022/01/23 16:49:37;;;;;;;1999.90;999.90;;;;;;;9.59;76.20;102909.34;15461894;28;20047;-64
2022/01/23 16:57:26;;;;;;;1999.90;999.90;;;;;;;9.53;76.48;102905.69;15446623;28;20652;-64
2022/01/23 17:05:01;;;;;;;1999.90;999.90;;;;;;;9.69;76.07;102904.66;15462403;28;20053;-66
2022/01/23 17:12:35;;;;;;;1999.90;999.90;;;;;;;9.75;75.73;102914.69;15464869;28;20100;-66
2022/01/23 17:20:09;;;;;;;1999.90;999.90;;;;;;;9.58;76.64;102916.03;15497027;28;20053;-66
2022/01/23 17:27:52;;;;;;;1999.90;999.90;;;;;;;9.88;75.07;102904.13;15459005;28;20046;-64
2022/01/23 17:35:25;;;;;;;1999.90;999.90;;;;;;;9.88;75.26;102901.34;15456096;28;20126;-64
2022/01/23 17:42:59;;;;;;;1999.90;999.90;;;;;;;9.86;75.16;102895.19;15446698;28;20043;-64
2022/01/23 17:50:33;;;;;;;1999.90;999.90;;;;;;;9.77;75.69;102895.72;15462962;28;20081;-65
2022/01/23 17:58:07;;;;;;;1999.90;999.90;;;;;;;9.68;75.50;102899.34;15502487;28;20124;-66
2022/01/23 18:05:42;;;;;;;1999.90;999.90;;;;;;;9.38;75.68;102902.84;15478211;28;20419;-66
2022/01/23 18:13:21;;;;;;;1999.90;999.90;;;;;;;9.17;76.81;102887.97;15484521;28;20129;-67
2022/01/23 18:20:54;;;;;;;1999.90;999.90;;;;;;;9.11;75.69;102897.44;15522785;28;20049;-63
2022/01/23 18:28:31;;;;;;;1999.90;999.90;;;;;;;9.16;76.09;102903.84;15495241;28;20057;-65
2022/01/23 18:36:05;;;;;;;1999.90;999.90;;;;;;;9.10;75.63;102906.91;15483050;28;20500;-65
2022/01/23 18:43:39;;;;;;;1999.90;999.90;;;;;;;8.94;76.65;102906.78;15484782;28;20535;-65
2022/01/23 18:51:12;;;;;;;1999.90;999.90;;;;;;;8.90;76.87;102913.19;15474376;28;20109;-65
2022/01/23 18:58:53;;;;;;;1999.90;999.90;;;;;;;9.10;76.38;102924.44;15492191;28;20552;-64
2022/01/23 19:06:32;;;;;;;1999.90;999.90;;;;;;;9.16;76.65;102926.13;15449060;28;20134;-64
2022/01/23 19:14:06;;;;;;;1999.90;999.90;;;;;;;9.15;76.87;102918.06;15467629;28;20101;-64
2022/01/23 19:21:39;;;;;;;1999.90;999.90;;;;;;;9.16;77.15;102920.56;15470226;28;20459;-66
2022/01/23 19:29:13;;;;;;;1999.90;999.90;;;;;;;9.17;76.40;102930.63;15445049;28;20582;-63
2022/01/23 19:36:47;;;;;;;1999.90;999.90;;;;;;;9.09;77.10;102933.09;15468149;28;20062;-68
2022/01/23 19:44:30;;;;;;;1999.90;999.90;;;;;;;9.31;76.88;102932.91;15460261;28;20045;-64
2022/01/23 19:52:03;;;;;;;1999.90;999.90;;;;;;;9.28;77.11;102947.41;15462408;28;20140;-64
2022/01/23 19:59:38;;;;;;;1999.90;999.90;;;;;;;9.39;77.10;102946.34;15464217;28;20128;-65
2022/01/23 20:07:11;;;;;;;1999.90;999.90;;;;;;;9.39;76.42;102952.75;15520633;28;20058;-61
2022/01/23 20:14:49;;;;;;;1999.90;999.90;;;;;;;9.36;77.53;102950.50;15518933;28;20053;-65
2022/01/23 20:22:22;;;;;;;1999.90;999.90;;;;;;;9.51;76.94;102947.78;15532060;28;20071;-64
2022/01/23 20:30:08;;;;;;;1999.90;999.90;;;;;;;9.57;77.08;102950.59;15491662;28;20049;-67
2022/01/23 20:37:45;;;;;;;1999.90;999.90;;;;;;;9.37;77.55;102952.16;15522923;28;20073;-65
2022/01/23 20:45:23;;;;;;;1999.90;999.90;;;;;;;9.54;77.66;102946.41;15520366;28;20051;-64
2022/01/23 20:53:48;;;;;;;1999.90;999.90;;;;;;;9.59;76.58;102959.50;15520962;28;20049;-64
2022/01/23 21:01:04;;;;;;;1999.90;999.90;;;;;;;9.56;76.63;102958.13;15498927;28;20084;-64
2022/01/23 21:08:40;;;;;;;1999.90;999.90;;;;;;;9.54;76.75;102952.81;15520509;28;20388;-62
2022/01/23 21:32:53;;;;;;;1999.90;999.90;;;;;;;9.53;77.29;102950.31;15521703;28;20042;-65
2022/01/23 21:40:42;;;;;;;1999.90;999.90;;;;;;;9.65;76.91;102952.84;15509705;28;20035;-66
2022/01/23 21:48:17;;;;;;;1999.90;999.90;;;;;;;9.67;77.50;102964.56;15505106;28;20060;-63
2022/01/23 21:55:55;;;;;;;1999.90;999.90;;;;;;;9.53;77.38;102962.28;15509972;28;20077;-63
2022/01/23 22:03:32;;;;;;;1999.90;999.90;;;;;;;9.64;78.38;102977.13;15496008;28;20384;-65
2022/01/23 22:11:13;;;;;;;1999.90;999.90;;;;;;;9.66;78.18;102980.47;15490713;28;20139;-63
2022/01/23 22:18:49;;;;;;;1999.90;999.90;;;;;;;9.54;78.38;102974.28;15487100;28;20038;-61
2022/01/23 22:34:19;;;;;;;1999.90;999.90;;;;;;;9.78;77.71;102985.81;15512611;28;20500;-64
2022/01/23 22:41:55;;;;;;;1999.90;999.90;;;;;;;9.80;77.55;102989.19;15519756;28;20165;-65
2022/01/23 22:49:34;;;;;;;1999.90;999.90;;;;;;;9.77;77.66;102979.38;15476572;28;20051;-64
2022/01/23 22:57:08;;;;;;;1999.90;999.90;;;;;;;9.77;77.76;102972.97;15410471;28;20043;-65
2022/01/23 23:04:43;;;;;;;1999.90;999.90;;;;;;;9.63;78.53;102978.22;15458061;28;20122;-63
2022/01/23 23:12:15;;;;;;;1999.90;999.90;;;;;;;9.59;78.62;102988.25;15417022;28;20050;-64
2022/01/23 23:19:59;;;;;;;1999.90;999.90;;;;;;;9.59;78.37;102985.47;15464515;28;20047;-63
2022/01/23 23:27:32;;;;;;;1999.90;999.90;;;;;;;9.60;78.09;102989.09;15436870;28;20051;-64
2022/01/23 23:35:07;;;;;;;1999.90;999.90;;;;;;;9.79;77.98;102981.91;15440521;28;20137;-64
2022/01/23 23:42:48;;;;;;;1999.90;999.90;;;;;;;9.80;78.02;102973.28;15495955;28;20047;-64
2022/01/23 23:50:23;;;;;;;1999.90;999.90;;;;;;;9.86;77.95;102981.66;15451710;28;20053;-64
2022/01/23 23:57:57;;;;;;;1999.90;999.90;;;;;;;9.77;77.80;102986.91;15451056;28;20057;-65
